CYUL/YUL METAR and TAF weather

Enter ICAO airport designator
Station Type Date Time Source
CYUL METAR 2021/06/24 07:00 UTC NOAA

CYUL 240700Z 20009KT 15SM SCT250 16/07 A3024 RMK CI3 SLP242


Station Type Date Time Source
CYUL Decoded METAR 2021/06/24 07:00 UTC NOAA

Montreal / Pierre Elliot Trudeau International Airport, Que, Canada (CYUL) 45-28N 073-45W 36M
Jun 24, 2021 - 03:00 AM EDT / 2021.06.24 0700 UTC
Wind: from the SSW (200 degrees) at 10 MPH (9 KT):0
Visibility: 15 mile(s):0
Sky conditions: partly cloudy
Temperature: 60 F (16 C)
Dew Point: 44 F (7 C)
Relative Humidity: 55%
Pressure (altimeter): 30.24 in. Hg (1024 hPa)
ob: CYUL 240700Z 20009KT 15SM SCT250 16/07 A3024 RMK CI3 SLP242
cycle: 7

Station Type Date Time Source
CYUL TAF 2021/06/24 06:42 UTC NOAA

TAF CYUL 240538Z 2406/2506 20010KT P6SM SKC
BECMG 2414/2416 21013G23KT FEW060
FM250100 22012KT P6SM SKC
BECMG 2502/2504 17010KT
RMK NXT FCST BY 240900Z

Example: see airport list